createdAt,value
2018-12-10T00:01:58.406Z,17.00
2018-12-10T00:04:26.925Z,16.07
2018-12-10T00:06:55.441Z,16.97
2018-12-10T00:09:23.928Z,16.93
2018-12-10T00:11:52.463Z,17.35
2018-12-10T00:14:21.073Z,16.97
2018-12-10T00:16:49.575Z,17.25
2018-12-10T00:19:18.141Z,17.67
2018-12-10T00:21:46.643Z,17.27
2018-12-10T00:24:15.170Z,18.15
2018-12-10T00:26:43.723Z,17.15
2018-12-10T00:29:12.461Z,17.25
2018-12-10T00:31:40.960Z,18.83
2018-12-10T00:34:09.487Z,20.25
2018-12-10T00:36:38.014Z,18.25
2018-12-10T00:39:07.654Z,19.65
2018-12-10T00:41:36.186Z,18.80
2018-12-10T00:44:04.710Z,19.55
2018-12-10T00:46:33.248Z,18.43
2018-12-10T00:49:01.752Z,18.25
2018-12-10T00:51:30.291Z,15.83
2018-12-10T00:53:58.883Z,18.40
2018-12-10T00:56:27.493Z,17.80
2018-12-10T00:58:56.006Z,18.48
2018-12-10T01:01:24.636Z,18.30
2018-12-10T01:03:53.224Z,17.73
2018-12-10T01:06:21.723Z,16.67
2018-12-10T01:08:50.218Z,16.40
2018-12-10T01:11:18.751Z,16.20
2018-12-10T01:13:47.246Z,15.93
2018-12-10T01:16:15.752Z,15.40
2018-12-10T01:18:44.254Z,14.13
2018-12-10T01:21:12.752Z,14.65
2018-12-10T01:23:41.306Z,14.83
2018-12-10T01:26:09.866Z,15.08
2018-12-10T01:28:38.390Z,14.10
2018-12-10T01:31:06.884Z,15.07
2018-12-10T01:33:35.410Z,13.62
2018-12-10T01:36:03.980Z,12.33
2018-12-10T01:38:32.486Z,12.35
2018-12-10T01:41:00.992Z,14.35
2018-12-10T01:43:29.529Z,10.35
2018-12-10T01:45:58.018Z,15.18
2018-12-10T01:48:26.620Z,15.00
2018-12-10T01:50:55.151Z,13.68
2018-12-10T01:53:23.685Z,14.83
2018-12-10T01:55:52.258Z,13.45
2018-12-10T01:58:20.875Z,15.45
2018-12-10T02:00:49.377Z,12.83
2018-12-10T02:03:17.917Z,13.83
2018-12-10T02:05:46.434Z,12.88
2018-12-10T02:08:14.913Z,12.07
2018-12-10T02:10:43.445Z,7.35
2018-12-10T02:13:12.423Z,7.65
2018-12-10T02:15:40.915Z,4.67
2018-12-10T02:18:09.466Z,6.83
2018-12-10T02:20:37.943Z,6.45
2018-12-10T02:23:06.427Z,7.15
2018-12-10T02:25:34.975Z,7.05
2018-12-10T02:28:03.459Z,6.95
2018-12-10T02:30:32.111Z,7.08
2018-12-10T02:33:00.667Z,7.93
2018-12-10T02:35:29.224Z,7.35
2018-12-10T02:37:57.727Z,7.95
2018-12-10T02:40:26.506Z,7.42
2018-12-10T02:42:55.038Z,7.03
2018-12-10T02:45:23.517Z,7.25
2018-12-10T02:47:52.060Z,7.40
2018-12-10T02:50:20.553Z,7.28
2018-12-10T02:52:49.046Z,7.33
2018-12-10T02:55:17.569Z,7.12
2018-12-10T02:57:46.282Z,6.45
2018-12-10T03:00:14.825Z,6.58
2018-12-10T03:02:43.347Z,6.87
2018-12-10T03:05:12.382Z,6.37
2018-12-10T03:07:41.411Z,6.00
2018-12-10T03:10:09.978Z,6.45
2018-12-10T03:12:38.549Z,6.63
2018-12-10T03:15:07.100Z,7.10
2018-12-10T03:17:35.652Z,6.33
2018-12-10T03:20:04.227Z,6.80
2018-12-10T03:22:32.800Z,6.95
2018-12-10T03:25:01.342Z,6.72
2018-12-10T03:27:29.855Z,7.50
2018-12-10T03:29:58.352Z,8.10
2018-12-10T03:32:26.849Z,7.83
2018-12-10T03:34:55.392Z,8.43
2018-12-10T03:37:23.941Z,8.20
2018-12-10T03:39:52.471Z,8.65
2018-12-10T03:42:20.981Z,8.73
2018-12-10T03:44:49.459Z,7.53
2018-12-10T03:47:17.985Z,8.40
2018-12-10T03:49:46.525Z,8.50
2018-12-10T03:52:15.033Z,7.85
2018-12-10T03:54:43.534Z,6.95
2018-12-10T03:57:12.612Z,7.90
2018-12-10T03:59:41.129Z,6.90
2018-12-10T04:02:09.652Z,8.00
2018-12-10T04:04:38.206Z,7.17
2018-12-10T04:07:06.696Z,7.55
2018-12-10T04:09:35.190Z,7.62
2018-12-10T04:12:03.742Z,7.53
2018-12-10T04:14:32.249Z,7.40
2018-12-10T04:17:00.764Z,6.42
2018-12-10T04:19:29.289Z,7.95
2018-12-10T04:21:57.766Z,7.20
2018-12-10T04:24:26.298Z,6.67
2018-12-10T04:26:54.828Z,6.70
2018-12-10T04:29:23.321Z,5.47
2018-12-10T04:31:51.810Z,6.72
2018-12-10T04:34:20.299Z,5.85
2018-12-10T04:36:48.864Z,5.83
2018-12-10T04:39:17.359Z,5.15
2018-12-10T04:41:45.888Z,4.53
2018-12-10T04:44:14.453Z,4.25
2018-12-10T04:46:43.729Z,5.12
2018-12-10T04:49:12.279Z,6.37
2018-12-10T04:51:40.861Z,6.00
2018-12-10T04:54:09.421Z,5.92
2018-12-10T04:56:37.922Z,6.25
2018-12-10T04:59:06.479Z,5.75
2018-12-10T05:01:35.707Z,5.42
2018-12-10T05:04:04.853Z,5.93
2018-12-10T05:06:33.467Z,7.08
2018-12-10T05:09:02.005Z,8.00
2018-12-10T05:11:30.512Z,7.45
2018-12-10T05:13:59.061Z,8.80
2018-12-10T05:16:27.678Z,9.73
2018-12-10T05:18:56.197Z,10.18
2018-12-10T05:21:24.727Z,11.63
2018-12-10T05:23:53.309Z,13.30
2018-12-10T05:26:21.926Z,13.20
2018-12-10T05:28:50.462Z,10.80
2018-12-10T05:31:18.968Z,11.83
2018-12-10T05:33:47.533Z,8.48
2018-12-10T05:36:16.072Z,13.58
2018-12-10T05:38:44.718Z,7.83
2018-12-10T05:41:13.558Z,11.03
2018-12-10T05:43:42.552Z,9.33
2018-12-10T05:46:11.120Z,8.85
2018-12-10T05:48:39.674Z,12.60
2018-12-10T05:51:08.215Z,13.38
2018-12-10T05:53:36.814Z,11.73
2018-12-10T05:56:05.456Z,10.23
2018-12-10T05:58:33.988Z,10.68
2018-12-10T06:01:02.516Z,10.50
2018-12-10T06:03:31.103Z,8.83
2018-12-10T06:05:59.712Z,11.08
2018-12-10T06:08:28.208Z,10.30
2018-12-10T06:10:56.821Z,11.20
2018-12-10T06:13:25.348Z,14.05
2018-12-10T06:15:53.878Z,15.15
2018-12-10T06:18:22.410Z,10.78
2018-12-10T06:20:50.953Z,10.43
2018-12-10T06:23:19.474Z,10.75
2018-12-10T06:25:48.084Z,9.53
2018-12-10T06:28:16.685Z,12.20
2018-12-10T06:30:45.304Z,7.20
2018-12-10T06:33:13.844Z,8.28
2018-12-10T06:35:42.494Z,3.30
2018-12-10T06:38:11.079Z,4.80
2018-12-10T06:40:39.700Z,4.33
2018-12-10T06:43:08.262Z,4.40
2018-12-10T06:45:36.856Z,4.70
2018-12-10T06:48:05.368Z,3.27
2018-12-10T06:50:34.026Z,4.50
2018-12-10T06:53:02.545Z,4.22
2018-12-10T06:55:31.087Z,4.50
2018-12-10T06:57:59.673Z,6.83
2018-12-10T07:00:28.188Z,5.00
2018-12-10T07:02:56.787Z,4.80
2018-12-10T07:05:25.456Z,4.70
2018-12-10T07:07:54.034Z,3.70
2018-12-10T07:10:22.564Z,4.58
2018-12-10T07:12:51.159Z,4.95
2018-12-10T07:15:20.542Z,4.40
2018-12-10T07:17:49.180Z,4.90
2018-12-10T07:20:17.727Z,5.40
2018-12-10T07:22:46.286Z,4.08
2018-12-10T07:25:14.845Z,3.90
2018-12-10T07:27:43.358Z,5.35
2018-12-10T07:30:12.005Z,3.72
2018-12-10T07:32:40.663Z,3.95
2018-12-10T07:35:09.218Z,3.50
2018-12-10T07:37:37.788Z,2.55
2018-12-10T07:40:06.761Z,3.85
2018-12-10T07:42:36.213Z,2.92
2018-12-10T07:45:05.314Z,2.40
2018-12-10T07:47:33.852Z,2.87
2018-12-10T07:50:02.494Z,2.60
2018-12-10T07:52:31.038Z,2.42
2018-12-10T07:54:59.693Z,2.67
2018-12-10T07:57:28.227Z,2.60
2018-12-10T07:59:56.875Z,2.05
2018-12-10T08:02:25.432Z,2.75
2018-12-10T08:04:53.955Z,2.80
2018-12-10T08:07:22.591Z,2.22
2018-12-10T08:09:51.090Z,2.60
2018-12-10T08:12:19.634Z,2.90
2018-12-10T08:14:48.149Z,3.05
2018-12-10T08:17:16.739Z,2.70
2018-12-10T08:19:45.261Z,2.67
2018-12-10T08:22:13.812Z,3.00
2018-12-10T08:24:42.325Z,3.27
2018-12-10T08:27:10.832Z,3.33
2018-12-10T08:29:39.375Z,3.83
2018-12-10T08:32:07.886Z,3.22
2018-12-10T08:34:41.395Z,3.75
2018-12-10T08:37:06.984Z,4.03
2018-12-10T08:39:36.345Z,3.58
2018-12-10T08:42:04.857Z,3.50
2018-12-10T08:44:33.355Z,3.55
2018-12-10T08:47:01.869Z,3.45
2018-12-10T08:49:30.463Z,3.50
2018-12-10T08:51:59.063Z,4.40
2018-12-10T08:54:27.555Z,3.60
2018-12-10T08:56:56.100Z,4.10
2018-12-10T08:59:24.792Z,4.60
2018-12-10T09:01:53.425Z,4.40
2018-12-10T09:04:22.239Z,6.28
2018-12-10T09:06:51.009Z,8.53
2018-12-10T09:09:19.539Z,9.40
2018-12-10T09:11:48.089Z,13.50
2018-12-10T09:14:16.555Z,8.28
2018-12-10T09:16:45.121Z,5.58
2018-12-10T09:19:13.676Z,9.18
2018-12-10T09:21:42.335Z,10.00
2018-12-10T09:24:10.909Z,6.78
2018-12-10T09:26:39.408Z,8.98
2018-12-10T09:29:08.001Z,8.58
2018-12-10T09:31:36.535Z,7.10
2018-12-10T09:34:06.027Z,5.20
2018-12-10T09:36:34.555Z,6.53
2018-12-10T09:39:04.905Z,4.45
2018-12-10T09:41:33.434Z,6.55
2018-12-10T09:44:02.037Z,5.75
2018-12-10T09:46:30.591Z,5.90
2018-12-10T09:48:59.111Z,6.17
2018-12-10T09:51:27.657Z,5.97
2018-12-10T09:53:56.185Z,6.62
2018-12-10T09:56:24.717Z,6.40
2018-12-10T09:58:53.264Z,6.05
2018-12-10T10:01:21.807Z,5.00
2018-12-10T10:03:50.341Z,6.73
2018-12-10T10:06:18.863Z,6.65
2018-12-10T10:08:49.577Z,6.72
2018-12-10T10:11:18.921Z,6.53
2018-12-10T10:13:47.414Z,6.75
2018-12-10T10:16:16.120Z,7.75
2018-12-10T10:18:44.671Z,7.33
2018-12-10T10:21:13.167Z,7.45
2018-12-10T10:23:41.714Z,6.50
2018-12-10T10:26:10.285Z,7.42
2018-12-10T10:28:38.832Z,6.92
2018-12-10T10:31:07.451Z,6.65
2018-12-10T10:33:36.051Z,8.55
2018-12-10T10:36:04.568Z,9.43
2018-12-10T10:38:33.108Z,9.30
2018-12-10T10:41:01.670Z,9.03
2018-12-10T10:43:30.156Z,8.47
2018-12-10T10:45:58.781Z,9.40
2018-12-10T10:48:27.356Z,9.10
2018-12-10T10:50:55.916Z,9.53
2018-12-10T10:53:24.612Z,10.20
2018-12-10T10:55:53.115Z,10.60
2018-12-10T10:58:23.621Z,10.18
2018-12-10T11:00:57.601Z,10.40
2018-12-10T11:03:31.574Z,9.75
2018-12-10T11:06:00.101Z,9.05
2018-12-10T11:08:28.696Z,10.13
2018-12-10T11:10:57.203Z,9.93
2018-12-10T11:13:25.809Z,10.08
2018-12-10T11:15:54.389Z,10.25
2018-12-10T11:18:22.971Z,10.63
2018-12-10T11:20:51.542Z,8.55
2018-12-10T11:23:20.122Z,10.05
2018-12-10T11:25:48.624Z,9.58
2018-12-10T11:28:17.204Z,13.58
2018-12-10T11:30:45.748Z,10.82
2018-12-10T11:33:14.295Z,10.72
2018-12-10T11:35:42.806Z,9.48
2018-12-10T11:38:11.505Z,10.20
2018-12-10T11:40:40.060Z,10.00
2018-12-10T11:43:08.601Z,10.58
2018-12-10T11:45:37.127Z,10.68
2018-12-10T11:48:05.682Z,10.80
2018-12-10T11:50:34.787Z,11.18
2018-12-10T11:53:03.312Z,9.78
2018-12-10T11:55:31.811Z,10.10
2018-12-10T11:58:00.393Z,9.28
2018-12-10T12:00:29.705Z,8.90
2018-12-10T12:02:58.603Z,9.10
2018-12-10T12:05:27.227Z,9.30
2018-12-10T12:07:56.007Z,9.50
2018-12-10T12:10:25.265Z,10.60
2018-12-10T12:12:53.932Z,9.33
2018-12-10T12:15:22.417Z,9.95
2018-12-10T12:17:50.926Z,9.93
2018-12-10T12:20:19.653Z,9.47
2018-12-10T12:22:48.323Z,10.00
2018-12-10T12:25:16.928Z,10.32
2018-12-10T12:27:45.529Z,10.82
2018-12-10T12:30:14.084Z,10.60
2018-12-10T12:32:42.636Z,10.82
2018-12-10T12:35:12.916Z,14.68
2018-12-10T12:37:42.233Z,11.35
2018-12-10T12:40:10.849Z,9.50
2018-12-10T12:42:39.372Z,10.38
2018-12-10T12:45:07.951Z,9.63
2018-12-10T12:47:36.449Z,9.68
2018-12-10T12:50:05.248Z,9.10
2018-12-10T12:52:33.783Z,9.30
2018-12-10T12:55:02.381Z,10.23
2018-12-10T12:57:30.921Z,10.23
2018-12-10T12:59:59.483Z,10.60
2018-12-10T13:02:27.982Z,10.50
2018-12-10T13:04:56.589Z,11.97
2018-12-10T13:07:25.163Z,11.35
2018-12-10T13:09:53.735Z,12.07
2018-12-10T13:12:22.293Z,12.97
2018-12-10T13:14:50.815Z,8.88
2018-12-10T13:17:19.337Z,9.55
2018-12-10T13:19:48.326Z,7.85
2018-12-10T13:22:16.961Z,16.52
2018-12-10T13:24:45.543Z,8.93
2018-12-10T13:27:14.183Z,10.18
2018-12-10T13:29:42.670Z,8.85
2018-12-10T13:32:14.059Z,6.92
2018-12-10T13:34:42.810Z,9.05
2018-12-10T13:37:11.355Z,10.20
2018-12-10T13:39:39.940Z,8.30
2018-12-10T13:42:08.482Z,8.00
2018-12-10T13:44:36.986Z,9.00
2018-12-10T13:47:05.569Z,8.00
2018-12-10T13:49:34.103Z,8.38
2018-12-10T13:52:02.680Z,12.73
2018-12-10T13:54:31.178Z,7.10
2018-12-10T13:56:59.738Z,10.00
2018-12-10T13:59:28.293Z,9.45
2018-12-10T14:01:56.856Z,8.88
2018-12-10T14:04:31.374Z,10.80
2018-12-10T14:06:59.977Z,13.62
2018-12-10T14:09:28.588Z,10.75
2018-12-10T14:11:57.242Z,10.10
2018-12-10T14:14:25.833Z,11.55
2018-12-10T14:16:54.659Z,11.97
2018-12-10T14:19:23.306Z,12.37
2018-12-10T14:21:51.850Z,13.32
2018-12-10T14:24:20.394Z,13.60
2018-12-10T14:26:48.966Z,17.23
2018-12-10T14:29:17.712Z,12.30
2018-12-10T14:31:46.192Z,15.32
2018-12-10T14:34:20.163Z,17.80
2018-12-10T14:36:48.828Z,14.98
2018-12-10T14:39:17.491Z,13.45
2018-12-10T14:41:46.050Z,14.50
2018-12-10T14:44:14.579Z,13.93
2018-12-10T14:46:43.208Z,13.60
2018-12-10T14:49:11.917Z,14.45
2018-12-10T14:51:40.446Z,15.23
2018-12-10T14:54:09.129Z,13.58
2018-12-10T14:56:37.772Z,15.15
2018-12-10T14:59:06.360Z,16.42
2018-12-10T15:01:34.880Z,15.88
2018-12-10T15:04:03.466Z,14.67
2018-12-10T15:06:32.079Z,12.05
2018-12-10T15:09:00.642Z,14.20
2018-12-10T15:11:29.456Z,16.62
2018-12-10T15:13:58.015Z,24.50
2018-12-10T15:16:27.167Z,14.90
2018-12-10T15:18:55.834Z,14.90
2018-12-10T15:21:24.499Z,12.95
2018-12-10T15:23:53.067Z,11.93
2018-12-10T15:26:21.588Z,14.15
2018-12-10T15:28:50.211Z,14.53
2018-12-10T15:31:18.805Z,15.32
2018-12-10T15:33:47.324Z,13.43
2018-12-10T15:36:15.851Z,13.08
2018-12-10T15:38:44.395Z,12.07
2018-12-10T15:41:12.951Z,12.20
2018-12-10T15:43:41.471Z,13.00
2018-12-10T15:46:10.056Z,12.23
2018-12-10T15:48:38.609Z,11.68
2018-12-10T15:51:07.248Z,11.77
2018-12-10T15:53:35.795Z,12.45
2018-12-10T15:56:04.344Z,12.53
2018-12-10T15:58:32.963Z,10.30
2018-12-10T16:01:01.559Z,10.48
2018-12-10T16:03:30.160Z,10.10
2018-12-10T16:05:58.688Z,11.50
2018-12-10T16:08:27.188Z,10.78
2018-12-10T16:10:55.760Z,11.22
2018-12-10T16:13:24.335Z,12.33
2018-12-10T16:15:53.002Z,12.07
2018-12-10T16:18:21.518Z,13.22
2018-12-10T16:20:50.319Z,12.93
2018-12-10T16:23:18.862Z,12.65
2018-12-10T16:25:47.388Z,12.15
2018-12-10T16:28:15.985Z,12.47
2018-12-10T16:30:44.706Z,18.12
2018-12-10T16:33:13.481Z,15.38
2018-12-10T16:35:42.229Z,15.40
2018-12-10T16:38:10.833Z,11.75
2018-12-10T16:40:39.861Z,10.43
2018-12-10T16:43:08.527Z,11.03
2018-12-10T16:45:37.062Z,13.28
2018-12-10T16:48:05.589Z,13.80
2018-12-10T16:50:34.193Z,14.80
2018-12-10T16:53:02.771Z,14.47
2018-12-10T16:55:31.295Z,12.53
2018-12-10T16:57:59.829Z,10.65
2018-12-10T17:00:29.186Z,59.40
2018-12-10T17:02:57.723Z,14.50
2018-12-10T17:05:29.801Z,16.57
2018-12-10T17:07:58.383Z,17.63
2018-12-10T17:10:26.987Z,33.75
2018-12-10T17:12:55.561Z,12.95
2018-12-10T17:15:24.214Z,12.58
2018-12-10T17:17:52.880Z,12.03
2018-12-10T17:20:21.406Z,12.43
2018-12-10T17:22:50.402Z,12.28
2018-12-10T17:25:18.973Z,12.73
2018-12-10T17:27:47.494Z,13.62
2018-12-10T17:30:16.180Z,14.20
2018-12-10T17:32:44.769Z,14.18
2018-12-10T17:35:13.321Z,13.77
2018-12-10T17:37:42.104Z,16.60
2018-12-10T17:40:10.665Z,13.75
2018-12-10T17:42:39.340Z,19.42
2018-12-10T17:45:09.168Z,15.80
2018-12-10T17:47:38.145Z,16.05
2018-12-10T17:50:09.276Z,15.05
2018-12-10T17:52:37.922Z,14.30
2018-12-10T17:55:06.657Z,16.87
2018-12-10T17:57:35.344Z,17.62
2018-12-10T18:00:04.562Z,14.53
2018-12-10T18:02:33.108Z,16.30
2018-12-10T18:05:01.687Z,15.18
2018-12-10T18:07:30.317Z,16.40
2018-12-10T18:09:58.900Z,18.27
2018-12-10T18:12:27.444Z,17.60
2018-12-10T18:14:55.980Z,16.02
2018-12-10T18:17:24.526Z,18.40
2018-12-10T18:19:53.311Z,18.32
2018-12-10T18:22:21.865Z,18.55
2018-12-10T18:24:50.376Z,19.77
2018-12-10T18:27:18.975Z,18.57
2018-12-10T18:29:47.622Z,16.30
2018-12-10T18:32:16.122Z,15.95
2018-12-10T18:34:44.656Z,16.90
2018-12-10T18:37:13.270Z,15.38
2018-12-10T18:39:41.842Z,18.65
2018-12-10T18:42:10.492Z,16.85
2018-12-10T18:44:39.151Z,15.75
2018-12-10T18:47:07.769Z,16.30
2018-12-10T18:49:36.364Z,13.73
2018-12-10T18:52:05.326Z,17.80
2018-12-10T18:54:35.199Z,14.40
2018-12-10T18:57:03.912Z,9.77
2018-12-10T18:59:32.467Z,12.80
2018-12-10T19:02:00.974Z,13.22
2018-12-10T19:04:29.518Z,13.50
2018-12-10T19:06:58.436Z,13.83
2018-12-10T19:09:27.724Z,12.15
2018-12-10T19:11:57.478Z,12.37
2018-12-10T19:14:26.237Z,12.18
2018-12-10T19:16:55.196Z,10.30
2018-12-10T19:19:24.079Z,11.88
2018-12-10T19:21:53.407Z,9.93
2018-12-10T19:24:22.077Z,12.28
2018-12-10T19:26:50.666Z,11.65
2018-12-10T19:29:19.178Z,11.35
2018-12-10T19:31:47.699Z,13.30
2018-12-10T19:34:16.323Z,18.65
2018-12-10T19:36:45.281Z,13.10
2018-12-10T19:39:13.821Z,55.73
2018-12-10T19:41:42.427Z,13.95
2018-12-10T19:44:10.989Z,14.93
2018-12-10T19:46:39.505Z,12.95
2018-12-10T19:49:08.192Z,15.63
2018-12-10T19:51:36.961Z,15.90
2018-12-10T19:54:05.504Z,16.02
2018-12-10T19:56:34.061Z,16.25
2018-12-10T19:59:02.591Z,15.85
2018-12-10T20:01:31.178Z,15.60
2018-12-10T20:03:59.710Z,15.53
2018-12-10T20:06:32.821Z,20.35
2018-12-10T20:09:01.453Z,15.78
2018-12-10T20:11:30.204Z,16.62
2018-12-10T20:13:58.710Z,14.30
2018-12-10T20:16:27.255Z,17.92
2018-12-10T20:18:56.929Z,14.85
2018-12-10T20:21:25.468Z,14.00
2018-12-10T20:23:54.085Z,15.50
2018-12-10T20:26:22.644Z,15.78
2018-12-10T20:28:51.237Z,14.85
2018-12-10T20:31:19.792Z,15.10
2018-12-10T20:33:48.430Z,14.87
2018-12-10T20:36:17.049Z,13.28
2018-12-10T20:38:45.702Z,15.58
2018-12-10T20:41:14.219Z,9.78
2018-12-10T20:43:42.783Z,16.90
2018-12-10T20:46:11.462Z,10.23
2018-12-10T20:48:40.004Z,17.95
2018-12-10T20:51:08.515Z,17.23
2018-12-10T20:53:37.089Z,15.90
2018-12-10T20:56:05.789Z,17.87
2018-12-10T20:58:34.344Z,17.07
2018-12-10T21:01:02.896Z,17.85
2018-12-10T21:03:31.472Z,17.45
2018-12-10T21:06:05.256Z,18.27
2018-12-10T21:08:33.839Z,18.55
2018-12-10T21:11:02.362Z,24.70
2018-12-10T21:13:31.360Z,18.82
2018-12-10T21:15:59.954Z,16.67
2018-12-10T21:18:28.550Z,17.05
2018-12-10T21:20:57.118Z,16.48
2018-12-10T21:23:25.652Z,15.63
2018-12-10T21:25:54.205Z,17.85
2018-12-10T21:28:22.812Z,18.35
2018-12-10T21:30:51.680Z,18.55
2018-12-10T21:33:20.272Z,18.15
2018-12-10T21:35:49.505Z,19.02
2018-12-10T21:38:18.380Z,17.23
2018-12-10T21:40:46.962Z,19.42
2018-12-10T21:43:15.533Z,16.40
2018-12-10T21:45:44.054Z,19.12
2018-12-10T21:48:12.594Z,17.77
2018-12-10T21:50:41.140Z,17.95
2018-12-10T21:53:09.740Z,15.60
2018-12-10T21:55:38.353Z,18.70
2018-12-10T21:58:06.882Z,17.27
2018-12-10T22:00:35.441Z,18.25
2018-12-10T22:03:04.020Z,18.50
2018-12-10T22:05:32.674Z,15.68
2018-12-10T22:08:01.412Z,14.80
2018-12-10T22:10:30.150Z,14.90
2018-12-10T22:12:59.508Z,14.28
2018-12-10T22:15:28.194Z,16.50
2018-12-10T22:17:57.168Z,17.27
2018-12-10T22:20:25.961Z,13.77
2018-12-10T22:22:55.128Z,15.67
2018-12-10T22:25:23.716Z,13.35
2018-12-10T22:27:52.398Z,14.15
2018-12-10T22:30:21.672Z,12.28
2018-12-10T22:32:50.988Z,16.17
2018-12-10T22:35:19.568Z,16.10
2018-12-10T22:37:48.196Z,14.95
2018-12-10T22:40:16.739Z,15.63
2018-12-10T22:42:45.261Z,14.47
2018-12-10T22:45:13.917Z,16.10
2018-12-10T22:47:42.697Z,17.10
2018-12-10T22:50:11.433Z,15.13
2018-12-10T22:52:40.009Z,17.37
2018-12-10T22:55:08.860Z,15.05
2018-12-10T22:57:37.568Z,14.60
2018-12-10T23:00:07.597Z,14.85
2018-12-10T23:02:36.193Z,14.67
2018-12-10T23:05:05.482Z,15.43
2018-12-10T23:07:34.013Z,14.58
2018-12-10T23:10:02.889Z,14.13
2018-12-10T23:12:31.512Z,14.13
2018-12-10T23:15:00.415Z,13.33
2018-12-10T23:17:29.377Z,14.07
2018-12-10T23:19:58.222Z,12.80
2018-12-10T23:22:27.073Z,14.00
2018-12-10T23:24:55.827Z,14.20
2018-12-10T23:27:24.633Z,13.78
2018-12-10T23:29:53.463Z,14.47
2018-12-10T23:32:22.277Z,13.35
2018-12-10T23:34:51.193Z,12.80
2018-12-10T23:37:20.016Z,13.22
2018-12-10T23:39:48.989Z,13.38
2018-12-10T23:42:17.853Z,13.43
2018-12-10T23:44:51.810Z,13.78
2018-12-10T23:47:20.649Z,11.83
2018-12-10T23:49:50.493Z,12.93
2018-12-10T23:52:19.307Z,12.23
2018-12-10T23:54:47.798Z,12.05
2018-12-10T23:57:33.151Z,12.27
